createdAt,value
2019-02-18T00:00:56.337Z,89
2019-02-18T00:01:58.456Z,89
2019-02-18T00:03:00.886Z,89
2019-02-18T00:04:02.998Z,89
2019-02-18T00:05:05.115Z,89
2019-02-18T00:06:07.522Z,89
2019-02-18T00:07:15.989Z,89
2019-02-18T00:08:18.134Z,89
2019-02-18T00:09:20.560Z,89
2019-02-18T00:10:22.694Z,89
2019-02-18T00:11:25.157Z,89
2019-02-18T00:12:27.601Z,89
2019-02-18T00:13:29.721Z,89
2019-02-18T00:14:31.843Z,89
2019-02-18T00:15:34.001Z,89
2019-02-18T00:16:36.139Z,89
2019-02-18T00:17:38.569Z,89
2019-02-18T00:18:40.701Z,89
2019-02-18T00:19:42.809Z,89
2019-02-18T00:20:45.601Z,89
2019-02-18T00:21:48.016Z,89
2019-02-18T00:22:50.180Z,89
2019-02-18T00:23:52.282Z,89
2019-02-18T00:24:54.709Z,89
2019-02-18T00:25:56.850Z,89
2019-02-18T00:26:58.964Z,89
2019-02-18T00:28:01.685Z,90
2019-02-18T00:29:04.219Z,90
2019-02-18T00:30:06.351Z,90
2019-02-18T00:31:08.486Z,90
2019-02-18T00:32:10.617Z,90
2019-02-18T00:33:12.725Z,90
2019-02-18T00:34:14.839Z,90
2019-02-18T00:35:16.964Z,90
2019-02-18T00:36:19.069Z,90
2019-02-18T00:37:26.156Z,90
2019-02-18T00:38:28.274Z,90
2019-02-18T00:39:30.395Z,90
2019-02-18T00:40:32.499Z,90
2019-02-18T00:41:34.623Z,91
2019-02-18T00:42:36.741Z,91
2019-02-18T00:43:39.460Z,91
2019-02-18T00:44:41.597Z,91
2019-02-18T00:45:43.996Z,91
2019-02-18T00:46:46.110Z,91
2019-02-18T00:47:49.119Z,91
2019-02-18T00:48:51.242Z,91
2019-02-18T00:49:53.620Z,91
2019-02-18T00:50:55.750Z,92
2019-02-18T00:51:58.141Z,92
2019-02-18T00:53:00.881Z,92
2019-02-18T00:54:03.739Z,92
2019-02-18T00:55:05.852Z,92
2019-02-18T00:56:07.964Z,92
2019-02-18T00:57:10.105Z,92
2019-02-18T00:58:12.218Z,92
2019-02-18T00:59:14.711Z,92
2019-02-18T01:00:16.846Z,92
2019-02-18T01:01:19.639Z,92
2019-02-18T01:02:21.786Z,92
2019-02-18T01:03:23.901Z,92
2019-02-18T01:04:26.392Z,92
2019-02-18T01:05:28.786Z,92
2019-02-18T01:06:31.519Z,93
2019-02-18T01:07:36.495Z,93
2019-02-18T01:08:38.631Z,93
2019-02-18T01:09:40.787Z,93
2019-02-18T01:10:42.895Z,93
2019-02-18T01:11:45.019Z,93
2019-02-18T01:12:47.132Z,93
2019-02-18T01:13:49.643Z,93
2019-02-18T01:14:51.752Z,93
2019-02-18T01:15:53.879Z,93
2019-02-18T01:16:56.283Z,93
2019-02-18T01:17:58.393Z,93
2019-02-18T01:19:00.517Z,93
2019-02-18T01:20:02.645Z,93
2019-02-18T01:21:04.763Z,93
2019-02-18T01:22:07.195Z,93
2019-02-18T01:23:09.338Z,93
2019-02-18T01:24:11.449Z,93
2019-02-18T01:25:13.586Z,94
2019-02-18T01:26:15.713Z,93
2019-02-18T01:27:18.118Z,94
2019-02-18T01:28:20.251Z,94
2019-02-18T01:29:22.361Z,94
2019-02-18T01:30:24.490Z,94
2019-02-18T01:31:26.604Z,94
2019-02-18T01:32:28.996Z,94
2019-02-18T01:33:31.437Z,94
2019-02-18T01:34:33.555Z,94
2019-02-18T01:35:35.958Z,94
2019-02-18T01:36:38.354Z,94
2019-02-18T01:37:47.170Z,94
2019-02-18T01:38:49.547Z,94
2019-02-18T01:39:51.677Z,94
2019-02-18T01:40:53.798Z,94
2019-02-18T01:41:56.299Z,95
2019-02-18T01:42:59.020Z,95
2019-02-18T01:44:01.127Z,95
2019-02-18T01:45:03.558Z,95
2019-02-18T01:46:05.956Z,95
2019-02-18T01:47:08.402Z,95
2019-02-18T01:48:10.506Z,95
2019-02-18T01:49:12.622Z,95
2019-02-18T01:50:15.058Z,96
2019-02-18T01:51:17.231Z,96
2019-02-18T01:52:19.355Z,95
2019-02-18T01:53:21.482Z,95
2019-02-18T01:54:23.870Z,96
2019-02-18T01:55:26.002Z,96
2019-02-18T01:56:28.122Z,96
2019-02-18T01:57:30.234Z,96
2019-02-18T01:58:32.362Z,96
2019-02-18T01:59:35.076Z,95
2019-02-18T02:00:37.183Z,96
2019-02-18T02:01:39.310Z,96
2019-02-18T02:02:41.419Z,96
2019-02-18T02:03:43.553Z,96
2019-02-18T02:04:45.669Z,96
2019-02-18T02:05:47.779Z,96
2019-02-18T02:06:49.896Z,96
2019-02-18T02:07:57.532Z,96
2019-02-18T02:08:59.661Z,96
2019-02-18T02:10:02.112Z,96
2019-02-18T02:11:05.234Z,96
2019-02-18T02:12:07.349Z,96
2019-02-18T02:13:09.483Z,96
2019-02-18T02:14:11.600Z,96
2019-02-18T02:15:13.709Z,95
2019-02-18T02:16:15.890Z,95
2019-02-18T02:17:17.990Z,95
2019-02-18T02:18:20.104Z,95
2019-02-18T02:19:22.229Z,95
2019-02-18T02:20:24.643Z,95
2019-02-18T02:21:26.742Z,95
2019-02-18T02:22:28.860Z,95
2019-02-18T02:23:31.374Z,95
2019-02-18T02:24:33.473Z,95
2019-02-18T02:25:35.599Z,95
2019-02-18T02:26:37.722Z,95
2019-02-18T02:27:40.413Z,95
2019-02-18T02:28:42.908Z,95
2019-02-18T02:29:45.696Z,95
2019-02-18T02:30:47.815Z,94
2019-02-18T02:31:50.650Z,95
2019-02-18T02:32:52.803Z,94
2019-02-18T02:33:54.920Z,94
2019-02-18T02:34:57.391Z,94
2019-02-18T02:35:59.548Z,94
2019-02-18T02:37:01.674Z,94
2019-02-18T02:38:08.943Z,94
2019-02-18T02:39:11.474Z,94
2019-02-18T02:40:13.631Z,94
2019-02-18T02:41:16.054Z,94
2019-02-18T02:42:18.506Z,93
2019-02-18T02:43:20.629Z,94
2019-02-18T02:44:23.169Z,94
2019-02-18T02:45:26.238Z,94
2019-02-18T02:46:28.692Z,94
2019-02-18T02:47:31.267Z,94
2019-02-18T02:48:33.389Z,94
2019-02-18T02:49:35.531Z,94
2019-02-18T02:50:37.702Z,94
2019-02-18T02:51:39.832Z,94
2019-02-18T02:52:42.288Z,94
2019-02-18T02:53:44.881Z,94
2019-02-18T02:54:46.989Z,94
2019-02-18T02:55:49.454Z,94
2019-02-18T02:56:51.978Z,94
2019-02-18T02:57:54.081Z,94
2019-02-18T02:58:57.006Z,95
2019-02-18T02:59:59.120Z,95
2019-02-18T03:01:01.854Z,95
2019-02-18T03:02:04.020Z,95
2019-02-18T03:03:06.537Z,95
2019-02-18T03:04:08.658Z,94
2019-02-18T03:05:11.078Z,95
2019-02-18T03:06:13.261Z,95
2019-02-18T03:07:16.338Z,95
2019-02-18T03:08:22.113Z,95
2019-02-18T03:09:24.884Z,94
2019-02-18T03:10:27.002Z,94
2019-02-18T03:11:29.133Z,95
2019-02-18T03:12:31.253Z,96
2019-02-18T03:13:33.367Z,95
2019-02-18T03:14:35.502Z,95
2019-02-18T03:15:37.901Z,95
2019-02-18T03:16:40.013Z,96
2019-02-18T03:17:42.687Z,96
2019-02-18T03:18:45.595Z,96
2019-02-18T03:19:47.785Z,96
2019-02-18T03:20:50.192Z,96
2019-02-18T03:21:52.652Z,96
2019-02-18T03:22:55.078Z,96
2019-02-18T03:23:57.619Z,96
2019-02-18T03:25:00.283Z,96
2019-02-18T03:26:02.706Z,96
2019-02-18T03:27:05.096Z,96
2019-02-18T03:28:07.223Z,96
2019-02-18T03:29:09.604Z,96
2019-02-18T03:30:12.118Z,97
2019-02-18T03:31:15.002Z,97
2019-02-18T03:32:17.818Z,97
2019-02-18T03:33:21.088Z,97
2019-02-18T03:34:23.871Z,97
2019-02-18T03:35:26.689Z,97
2019-02-18T03:36:28.875Z,96
2019-02-18T03:37:31.002Z,96
2019-02-18T03:38:33.107Z,97
2019-02-18T03:39:35.246Z,96
2019-02-18T03:40:37.674Z,96
2019-02-18T03:41:41.904Z,96
2019-02-18T03:42:44.008Z,97
2019-02-18T03:43:46.529Z,97
2019-02-18T03:44:49.250Z,97
2019-02-18T03:45:51.764Z,97
2019-02-18T03:46:53.907Z,97
2019-02-18T03:47:56.618Z,97
2019-02-18T03:48:59.115Z,96
2019-02-18T03:50:01.832Z,97
2019-02-18T03:51:04.578Z,97
2019-02-18T03:52:06.679Z,97
2019-02-18T03:53:09.198Z,98
2019-02-18T03:54:11.387Z,98
2019-02-18T03:55:13.504Z,98
2019-02-18T03:56:15.629Z,98
2019-02-18T03:57:18.327Z,97
2019-02-18T03:58:20.443Z,97
2019-02-18T03:59:22.606Z,97
2019-02-18T04:00:25.044Z,98
2019-02-18T04:01:27.178Z,98
2019-02-18T04:02:29.682Z,98
2019-02-18T04:03:32.122Z,98
2019-02-18T04:04:34.293Z,99
2019-02-18T04:05:36.678Z,98
2019-02-18T04:06:38.789Z,99
2019-02-18T04:07:40.960Z,99
2019-02-18T04:08:44.287Z,99
2019-02-18T04:09:46.711Z,100
2019-02-18T04:10:49.119Z,99
2019-02-18T04:11:51.918Z,99
2019-02-18T04:12:54.425Z,99
2019-02-18T04:13:56.590Z,99
2019-02-18T04:14:58.719Z,99
2019-02-18T04:16:00.834Z,100
2019-02-18T04:17:02.982Z,99
2019-02-18T04:18:05.373Z,100
2019-02-18T04:19:07.486Z,99
2019-02-18T04:20:09.625Z,100
2019-02-18T04:21:11.828Z,99
2019-02-18T04:22:13.945Z,100
2019-02-18T04:23:16.136Z,100
2019-02-18T04:24:18.553Z,100
2019-02-18T04:25:20.970Z,100
2019-02-18T04:26:23.473Z,100
2019-02-18T04:27:25.892Z,100
2019-02-18T04:28:28.016Z,100
2019-02-18T04:29:30.205Z,100
2019-02-18T04:30:32.599Z,100
2019-02-18T04:31:34.729Z,100
2019-02-18T04:32:36.851Z,100
2019-02-18T04:33:38.983Z,100
2019-02-18T04:34:41.383Z,100
2019-02-18T04:35:43.792Z,100
2019-02-18T04:36:46.591Z,100
2019-02-18T04:37:49.405Z,100
2019-02-18T04:38:55.227Z,100
2019-02-18T04:39:57.340Z,100
2019-02-18T04:40:59.778Z,100
2019-02-18T04:42:02.210Z,100
2019-02-18T04:43:04.310Z,100
2019-02-18T04:44:06.438Z,100
2019-02-18T04:45:08.547Z,100
2019-02-18T04:46:10.957Z,100
2019-02-18T04:47:13.371Z,100
2019-02-18T04:48:15.780Z,100
2019-02-18T04:49:18.235Z,100
2019-02-18T04:50:20.657Z,100
2019-02-18T04:51:23.076Z,100
2019-02-18T04:52:25.469Z,100
2019-02-18T04:53:27.911Z,100
2019-02-18T04:54:30.007Z,100
2019-02-18T04:55:32.132Z,100
2019-02-18T04:56:34.260Z,100
2019-02-18T04:57:36.711Z,100
2019-02-18T04:58:38.815Z,100
2019-02-18T04:59:40.982Z,100
2019-02-18T05:00:43.105Z,100
2019-02-18T05:01:45.666Z,100
2019-02-18T05:02:48.076Z,100
2019-02-18T05:03:50.466Z,100
2019-02-18T05:04:52.648Z,100
2019-02-18T05:05:54.817Z,100
2019-02-18T05:06:59.623Z,100
2019-02-18T05:08:01.739Z,100
2019-02-18T05:09:06.714Z,100
2019-02-18T05:10:08.860Z,100
2019-02-18T05:11:11.253Z,100
2019-02-18T05:12:13.385Z,100
2019-02-18T05:13:15.929Z,100
2019-02-18T05:14:18.412Z,100
2019-02-18T05:15:20.833Z,100
2019-02-18T05:16:23.015Z,100
2019-02-18T05:17:25.151Z,100
2019-02-18T05:18:27.267Z,100
2019-02-18T05:19:29.393Z,100
2019-02-18T05:20:31.810Z,100
2019-02-18T05:21:33.936Z,100
2019-02-18T05:22:36.045Z,100
2019-02-18T05:23:39.175Z,100
2019-02-18T05:24:41.289Z,100
2019-02-18T05:25:43.400Z,100
2019-02-18T05:26:45.845Z,100
2019-02-18T05:27:47.963Z,100
2019-02-18T05:28:50.087Z,100
2019-02-18T05:29:52.599Z,100
2019-02-18T05:30:54.736Z,100
2019-02-18T05:31:57.141Z,100
2019-02-18T05:33:00.359Z,100
2019-02-18T05:34:03.277Z,100
2019-02-18T05:35:05.781Z,100
2019-02-18T05:36:08.204Z,100
2019-02-18T05:37:10.315Z,100
2019-02-18T05:38:12.831Z,100
2019-02-18T05:39:19.708Z,100
2019-02-18T05:40:21.856Z,100
2019-02-18T05:41:24.397Z,100
2019-02-18T05:42:27.118Z,100
2019-02-18T05:43:29.252Z,100
2019-02-18T05:44:31.947Z,100
2019-02-18T05:45:34.087Z,100
2019-02-18T05:46:36.285Z,100
2019-02-18T05:47:38.444Z,100
2019-02-18T05:48:41.258Z,100
2019-02-18T05:49:43.680Z,100
2019-02-18T05:50:46.352Z,100
2019-02-18T05:51:48.485Z,100
2019-02-18T05:52:50.923Z,100
2019-02-18T05:53:53.033Z,100
2019-02-18T05:54:55.541Z,100
2019-02-18T05:55:58.292Z,100
2019-02-18T05:57:00.704Z,100
2019-02-18T05:58:03.257Z,100
2019-02-18T05:59:05.690Z,100
2019-02-18T06:00:08.103Z,100
2019-02-18T06:01:10.272Z,100
2019-02-18T06:02:12.390Z,100
2019-02-18T06:03:15.577Z,100
2019-02-18T06:04:17.689Z,100
2019-02-18T06:05:20.104Z,100
2019-02-18T06:06:22.553Z,100
2019-02-18T06:07:24.680Z,100
2019-02-18T06:08:27.131Z,100
2019-02-18T06:09:31.567Z,100
2019-02-18T06:10:33.695Z,100
2019-02-18T06:11:35.816Z,100
2019-02-18T06:12:38.034Z,100
2019-02-18T06:13:40.421Z,100
2019-02-18T06:14:42.852Z,100
2019-02-18T06:15:44.964Z,100
2019-02-18T06:16:47.143Z,100
2019-02-18T06:17:49.335Z,100
2019-02-18T06:18:51.508Z,100
2019-02-18T06:19:53.632Z,100
2019-02-18T06:20:55.758Z,100
2019-02-18T06:21:58.276Z,100
2019-02-18T06:23:00.393Z,100
2019-02-18T06:24:02.826Z,100
2019-02-18T06:25:05.655Z,100
2019-02-18T06:26:08.445Z,100
2019-02-18T06:27:10.575Z,100
2019-02-18T06:28:13.394Z,100
2019-02-18T06:29:15.810Z,100
2019-02-18T06:30:18.260Z,100
2019-02-18T06:31:20.680Z,100
2019-02-18T06:32:23.093Z,100
2019-02-18T06:33:28.183Z,100
2019-02-18T06:34:30.981Z,100
2019-02-18T06:35:33.670Z,100
2019-02-18T06:36:35.801Z,100
2019-02-18T06:37:38.207Z,100
2019-02-18T06:38:40.634Z,100
2019-02-18T06:39:43.373Z,100
2019-02-18T06:40:45.904Z,100
2019-02-18T06:41:48.455Z,100
2019-02-18T06:42:51.207Z,100
2019-02-18T06:43:53.723Z,100
2019-02-18T06:44:55.839Z,100
2019-02-18T06:45:57.958Z,100
2019-02-18T06:47:00.060Z,100
2019-02-18T06:48:02.181Z,100
2019-02-18T06:49:04.297Z,100
2019-02-18T06:50:06.417Z,100
2019-02-18T06:51:08.548Z,100
2019-02-18T06:52:10.682Z,100
2019-02-18T06:53:13.187Z,100
2019-02-18T06:54:15.903Z,100
2019-02-18T06:55:18.026Z,100
2019-02-18T06:56:20.136Z,100
2019-02-18T06:57:22.938Z,100
2019-02-18T06:58:25.048Z,100
2019-02-18T06:59:27.165Z,100
2019-02-18T07:00:29.295Z,100
2019-02-18T07:01:31.693Z,100
2019-02-18T07:02:33.813Z,100
2019-02-18T07:03:35.962Z,100
2019-02-18T07:04:38.078Z,100
2019-02-18T07:05:40.242Z,100
2019-02-18T07:06:42.443Z,100
2019-02-18T07:07:44.953Z,100
2019-02-18T07:08:47.693Z,100
2019-02-18T07:09:52.468Z,100
2019-02-18T07:10:54.910Z,100
2019-02-18T07:11:57.017Z,100
2019-02-18T07:12:59.137Z,100
2019-02-18T07:14:01.260Z,100
2019-02-18T07:15:03.374Z,100
2019-02-18T07:16:05.502Z,100
2019-02-18T07:17:07.606Z,100
2019-02-18T07:18:12.762Z,100
2019-02-18T07:19:14.886Z,100
2019-02-18T07:20:17.027Z,100
2019-02-18T07:21:19.134Z,100
2019-02-18T07:22:21.269Z,100
2019-02-18T07:23:24.197Z,100
2019-02-18T07:24:26.317Z,100
2019-02-18T07:25:28.734Z,100
2019-02-18T07:26:31.419Z,100
2019-02-18T07:27:33.521Z,100
2019-02-18T07:28:36.032Z,100
2019-02-18T07:29:38.443Z,100
2019-02-18T07:30:40.573Z,100
2019-02-18T07:31:42.986Z,100
2019-02-18T07:32:45.508Z,100
2019-02-18T07:33:48.254Z,100
2019-02-18T07:34:50.791Z,99
2019-02-18T07:35:52.952Z,98
2019-02-18T07:36:55.080Z,98
2019-02-18T07:37:57.882Z,97
2019-02-18T07:39:00.021Z,96
2019-02-18T07:40:03.968Z,95
2019-02-18T07:41:06.108Z,94
2019-02-18T07:42:08.246Z,94
2019-02-18T07:43:10.377Z,93
2019-02-18T07:44:12.490Z,92
2019-02-18T07:45:14.620Z,91
2019-02-18T07:46:16.748Z,92
2019-02-18T07:47:18.870Z,90
2019-02-18T07:48:20.975Z,90
2019-02-18T07:49:23.392Z,90
2019-02-18T07:50:25.503Z,90
2019-02-18T07:51:27.938Z,88
2019-02-18T07:52:30.363Z,88
2019-02-18T07:53:32.491Z,87
2019-02-18T07:54:34.616Z,86
2019-02-18T07:55:36.822Z,88
2019-02-18T07:56:38.951Z,86
2019-02-18T07:57:41.054Z,85
2019-02-18T07:58:43.176Z,85
2019-02-18T07:59:45.290Z,85
2019-02-18T08:00:47.394Z,87
2019-02-18T08:01:49.515Z,85
2019-02-18T08:02:52.038Z,84
2019-02-18T08:03:54.158Z,84
2019-02-18T08:04:56.284Z,83
2019-02-18T08:05:58.410Z,83
2019-02-18T08:07:00.832Z,85
2019-02-18T08:08:03.345Z,83
2019-02-18T08:09:05.763Z,81
2019-02-18T08:10:13.329Z,82
2019-02-18T08:11:15.453Z,81
2019-02-18T08:12:17.581Z,79
2019-02-18T08:13:19.708Z,80
2019-02-18T08:14:22.135Z,80
2019-02-18T08:15:24.253Z,79
2019-02-18T08:16:26.375Z,78
2019-02-18T08:17:28.491Z,78
2019-02-18T08:18:31.327Z,77
2019-02-18T08:19:33.434Z,78
2019-02-18T08:20:35.839Z,76
2019-02-18T08:21:37.971Z,78
2019-02-18T08:22:40.802Z,78
2019-02-18T08:23:43.332Z,78
2019-02-18T08:24:45.454Z,77
2019-02-18T08:25:47.586Z,78
2019-02-18T08:26:49.714Z,80
2019-02-18T08:27:51.850Z,76
2019-02-18T08:28:53.968Z,75
2019-02-18T08:29:56.085Z,76
2019-02-18T08:30:58.237Z,75
2019-02-18T08:32:00.769Z,74
2019-02-18T08:33:02.898Z,75
2019-02-18T08:34:05.032Z,72
2019-02-18T08:35:07.566Z,74
2019-02-18T08:36:09.683Z,74
2019-02-18T08:37:11.808Z,73
2019-02-18T08:38:13.918Z,74
2019-02-18T08:39:16.052Z,75
2019-02-18T08:40:23.598Z,73
2019-02-18T08:41:25.730Z,71
2019-02-18T08:42:27.850Z,70
2019-02-18T08:43:29.992Z,71
2019-02-18T08:44:32.182Z,70
2019-02-18T08:45:34.611Z,70
2019-02-18T08:46:37.326Z,70
2019-02-18T08:47:40.008Z,70
2019-02-18T08:48:42.226Z,69
2019-02-18T08:49:44.350Z,70
2019-02-18T08:50:46.481Z,70
2019-02-18T08:51:48.971Z,69
2019-02-18T08:52:51.110Z,71
2019-02-18T08:53:53.229Z,70
2019-02-18T08:54:57.754Z,69
2019-02-18T08:55:59.900Z,69
2019-02-18T08:57:02.028Z,68
2019-02-18T08:58:04.162Z,68
2019-02-18T08:59:06.574Z,69
2019-02-18T09:00:08.726Z,68
2019-02-18T09:01:10.844Z,67
2019-02-18T09:02:12.963Z,65
2019-02-18T09:03:15.176Z,64
2019-02-18T09:04:17.621Z,64
2019-02-18T09:05:20.519Z,66
2019-02-18T09:06:23.447Z,66
2019-02-18T09:07:25.590Z,66
2019-02-18T09:08:28.010Z,63
2019-02-18T09:09:30.133Z,63
2019-02-18T09:10:34.923Z,62
2019-02-18T09:11:37.044Z,62
2019-02-18T09:12:39.173Z,62
2019-02-18T09:13:41.713Z,61
2019-02-18T09:14:43.853Z,61
2019-02-18T09:15:46.652Z,61
2019-02-18T09:16:49.089Z,59
2019-02-18T09:17:51.508Z,60
2019-02-18T09:18:53.912Z,61
2019-02-18T09:19:56.046Z,61
2019-02-18T09:20:58.181Z,61
2019-02-18T09:22:00.318Z,59
2019-02-18T09:23:02.460Z,60
2019-02-18T09:24:04.907Z,60
2019-02-18T09:25:07.311Z,58
2019-02-18T09:26:09.458Z,57
2019-02-18T09:27:11.593Z,58
2019-02-18T09:28:13.728Z,57
2019-02-18T09:29:16.177Z,56
2019-02-18T09:30:18.308Z,55
2019-02-18T09:31:20.447Z,55
2019-02-18T09:32:22.578Z,55
2019-02-18T09:33:25.042Z,56
2019-02-18T09:34:27.498Z,55
2019-02-18T09:35:29.639Z,54
2019-02-18T09:36:32.158Z,55
2019-02-18T09:37:34.322Z,57
2019-02-18T09:38:36.773Z,55
2019-02-18T09:39:38.916Z,58
2019-02-18T09:40:52.203Z,58
2019-02-18T09:41:54.671Z,56
2019-02-18T09:42:56.798Z,54
2019-02-18T09:43:59.330Z,54
2019-02-18T09:45:01.455Z,54
2019-02-18T09:46:03.996Z,55
2019-02-18T09:47:06.162Z,53
2019-02-18T09:48:08.299Z,54
2019-02-18T09:49:11.007Z,52
2019-02-18T09:50:13.172Z,53
2019-02-18T09:51:15.299Z,53
2019-02-18T09:52:17.427Z,54
2019-02-18T09:53:19.571Z,53
2019-02-18T09:54:21.698Z,54
2019-02-18T09:55:23.848Z,51
2019-02-18T09:56:25.986Z,50
2019-02-18T09:57:28.121Z,53
2019-02-18T09:58:30.313Z,51
2019-02-18T09:59:32.465Z,51
2019-02-18T10:00:34.600Z,52
2019-02-18T10:01:36.739Z,52
2019-02-18T10:02:38.892Z,51
2019-02-18T10:03:41.310Z,52
2019-02-18T10:04:43.728Z,52
2019-02-18T10:05:45.859Z,52
2019-02-18T10:06:48.010Z,52
2019-02-18T10:07:50.131Z,51
2019-02-18T10:08:52.267Z,51
2019-02-18T10:09:54.796Z,51
2019-02-18T10:10:57.703Z,51
2019-02-18T10:11:59.870Z,51
2019-02-18T10:13:02.012Z,51
2019-02-18T10:14:04.164Z,51
2019-02-18T10:15:06.307Z,51
2019-02-18T10:16:08.863Z,50
2019-02-18T10:17:11.115Z,52
2019-02-18T10:18:13.538Z,51
2019-02-18T10:19:15.676Z,52
2019-02-18T10:20:18.121Z,51
2019-02-18T10:21:20.672Z,53
2019-02-18T10:22:22.812Z,52
2019-02-18T10:23:24.971Z,53
2019-02-18T10:24:27.112Z,53
2019-02-18T10:25:29.521Z,52
2019-02-18T10:26:31.774Z,51
2019-02-18T10:27:34.324Z,51
2019-02-18T10:28:36.467Z,50
2019-02-18T10:29:38.604Z,49
2019-02-18T10:30:41.074Z,49
2019-02-18T10:31:43.867Z,49
2019-02-18T10:32:46.065Z,48
2019-02-18T10:33:48.202Z,49
2019-02-18T10:34:50.336Z,49
2019-02-18T10:35:52.498Z,49
2019-02-18T10:36:54.634Z,49
2019-02-18T10:37:56.785Z,48
2019-02-18T10:38:58.922Z,50
2019-02-18T10:40:01.375Z,48
2019-02-18T10:41:08.020Z,49
2019-02-18T10:42:10.470Z,48
2019-02-18T10:43:12.690Z,49
2019-02-18T10:44:15.203Z,48
2019-02-18T10:45:17.374Z,47
2019-02-18T10:46:19.662Z,46
2019-02-18T10:47:22.447Z,47
2019-02-18T10:48:24.620Z,47
2019-02-18T10:49:27.076Z,47
2019-02-18T10:50:29.993Z,46
2019-02-18T10:51:33.269Z,47
2019-02-18T10:52:35.466Z,46
2019-02-18T10:53:37.693Z,47
2019-02-18T10:54:39.912Z,47
2019-02-18T10:55:42.401Z,46
2019-02-18T10:56:44.548Z,46
2019-02-18T10:57:46.706Z,46
2019-02-18T10:58:48.869Z,47
2019-02-18T10:59:51.025Z,47
2019-02-18T11:00:54.040Z,46
2019-02-18T11:01:57.320Z,47
2019-02-18T11:02:59.493Z,46
2019-02-18T11:04:01.659Z,46
2019-02-18T11:05:03.871Z,46
2019-02-18T11:06:09.089Z,46
2019-02-18T11:07:11.553Z,46
2019-02-18T11:08:13.998Z,45
2019-02-18T11:09:16.130Z,46
2019-02-18T11:10:18.288Z,45
2019-02-18T11:11:20.435Z,45
2019-02-18T11:12:22.587Z,45
2019-02-18T11:13:24.745Z,46
2019-02-18T11:14:27.323Z,44
2019-02-18T11:15:29.510Z,45
2019-02-18T11:16:31.676Z,45
2019-02-18T11:17:40.458Z,45
2019-02-18T11:18:43.269Z,45
2019-02-18T11:19:46.134Z,44
2019-02-18T11:20:48.322Z,44
2019-02-18T11:21:50.492Z,44
2019-02-18T11:22:52.672Z,44
2019-02-18T11:23:54.849Z,44
2019-02-18T11:24:57.001Z,45
2019-02-18T11:25:59.465Z,45
2019-02-18T11:27:01.644Z,46
2019-02-18T11:28:04.498Z,46
2019-02-18T11:29:06.977Z,44
2019-02-18T11:30:09.993Z,44
2019-02-18T11:31:12.342Z,46
2019-02-18T11:32:15.719Z,44
2019-02-18T11:33:17.907Z,42
2019-02-18T11:34:20.114Z,43
2019-02-18T11:35:22.610Z,43
2019-02-18T11:36:24.793Z,42
2019-02-18T11:37:26.949Z,43
2019-02-18T11:38:29.148Z,43
2019-02-18T11:39:31.353Z,43
2019-02-18T11:40:33.550Z,43
2019-02-18T11:41:36.462Z,42
2019-02-18T11:42:39.274Z,43
2019-02-18T11:43:42.403Z,42
2019-02-18T11:44:45.267Z,42
2019-02-18T11:45:47.451Z,42
2019-02-18T11:46:49.606Z,42
2019-02-18T11:47:52.182Z,42
2019-02-18T11:48:55.337Z,42
2019-02-18T11:49:58.115Z,41
2019-02-18T11:51:00.297Z,40
2019-02-18T11:52:02.471Z,41
2019-02-18T11:53:04.935Z,41
2019-02-18T11:54:07.607Z,42
2019-02-18T11:55:10.526Z,40
2019-02-18T11:56:12.689Z,40
2019-02-18T11:57:15.458Z,41
2019-02-18T11:58:17.612Z,40
2019-02-18T11:59:25.411Z,41
2019-02-18T12:00:27.602Z,41
2019-02-18T12:01:29.833Z,40
2019-02-18T12:02:32.020Z,41
2019-02-18T12:03:34.529Z,40
2019-02-18T12:04:37.312Z,40
2019-02-18T12:05:39.499Z,41
2019-02-18T12:06:44.743Z,40
2019-02-18T12:07:48.427Z,39
2019-02-18T12:08:51.043Z,40
2019-02-18T12:09:53.220Z,39
2019-02-18T12:10:55.735Z,40
2019-02-18T12:11:57.969Z,40
2019-02-18T12:13:00.189Z,40
2019-02-18T12:14:02.387Z,40
2019-02-18T12:15:05.168Z,40
2019-02-18T12:16:07.348Z,39
2019-02-18T12:17:21.233Z,40
2019-02-18T12:18:23.414Z,40
2019-02-18T12:19:26.235Z,41
2019-02-18T12:20:29.258Z,41
2019-02-18T12:21:31.479Z,41
2019-02-18T12:22:33.657Z,39
2019-02-18T12:23:35.843Z,40
2019-02-18T12:24:40.113Z,41
2019-02-18T12:25:42.291Z,40
2019-02-18T12:26:44.486Z,41
2019-02-18T12:27:46.704Z,40
2019-02-18T12:28:48.896Z,39
2019-02-18T12:29:53.820Z,40
2019-02-18T12:30:57.461Z,38
2019-02-18T12:32:00.819Z,39
2019-02-18T12:33:03.420Z,39
2019-02-18T12:34:05.999Z,39
2019-02-18T12:35:08.455Z,38
2019-02-18T12:36:10.922Z,38
2019-02-18T12:37:13.129Z,38
2019-02-18T12:38:17.877Z,38
2019-02-18T12:39:22.498Z,38
2019-02-18T12:40:25.287Z,37
2019-02-18T12:41:27.848Z,38
2019-02-18T12:42:30.302Z,38
2019-02-18T12:43:33.227Z,38
2019-02-18T12:44:36.844Z,38
2019-02-18T12:45:39.059Z,39
2019-02-18T12:46:41.570Z,38
2019-02-18T12:47:43.774Z,37
2019-02-18T12:48:46.254Z,38
2019-02-18T12:49:50.847Z,38
2019-02-18T12:50:53.266Z,38
2019-02-18T12:51:55.862Z,37
2019-02-18T12:52:58.455Z,38
2019-02-18T12:54:06.518Z,37
2019-02-18T12:55:09.833Z,38
2019-02-18T12:56:12.987Z,38
2019-02-18T12:57:15.634Z,38
2019-02-18T12:58:17.873Z,37
2019-02-18T12:59:20.083Z,37
2019-02-18T13:00:22.326Z,37
2019-02-18T13:01:24.571Z,38
2019-02-18T13:02:27.108Z,38
2019-02-18T13:03:29.352Z,37
2019-02-18T13:04:33.029Z,37
2019-02-18T13:05:35.826Z,37
2019-02-18T13:06:38.869Z,37
2019-02-18T13:07:41.733Z,37
2019-02-18T13:08:44.355Z,37
2019-02-18T13:09:46.594Z,37
2019-02-18T13:10:49.112Z,38
2019-02-18T13:12:00.515Z,38
2019-02-18T13:13:03.342Z,39
2019-02-18T13:14:05.617Z,38
2019-02-18T13:15:07.865Z,38
2019-02-18T13:16:10.403Z,36
2019-02-18T13:17:13.266Z,37
2019-02-18T13:18:16.371Z,37
2019-02-18T13:19:18.980Z,37
2019-02-18T13:20:21.677Z,37
2019-02-18T13:21:23.927Z,37
2019-02-18T13:22:26.176Z,38
2019-02-18T13:23:28.438Z,38
2019-02-18T13:24:30.631Z,37
2019-02-18T13:25:32.866Z,37
2019-02-18T13:26:35.095Z,37
2019-02-18T13:27:37.990Z,37
2019-02-18T13:28:41.734Z,37
2019-02-18T13:29:44.570Z,38
2019-02-18T13:30:46.776Z,37
2019-02-18T13:31:49.006Z,37
2019-02-18T13:32:51.641Z,37
2019-02-18T13:33:53.876Z,37
2019-02-18T13:34:56.073Z,37
2019-02-18T13:35:58.901Z,36
2019-02-18T13:37:01.133Z,37
2019-02-18T13:38:03.316Z,37
2019-02-18T13:39:06.217Z,37
2019-02-18T13:40:09.415Z,37
2019-02-18T13:41:11.602Z,36
2019-02-18T13:42:14.456Z,36
2019-02-18T13:43:16.945Z,37
2019-02-18T13:44:19.170Z,37
2019-02-18T13:45:21.372Z,37
2019-02-18T13:46:23.581Z,37
2019-02-18T13:47:26.063Z,37
2019-02-18T13:48:28.278Z,37
2019-02-18T13:49:31.299Z,38
2019-02-18T13:50:33.811Z,38
2019-02-18T13:51:37.066Z,38
2019-02-18T13:52:39.315Z,39
2019-02-18T13:53:41.535Z,39
2019-02-18T13:54:43.737Z,39
2019-02-18T13:55:46.498Z,40
2019-02-18T13:56:48.690Z,40
2019-02-18T13:57:51.182Z,40
2019-02-18T13:58:53.792Z,41
2019-02-18T13:59:56.000Z,41
2019-02-18T14:00:59.010Z,41
2019-02-18T14:02:01.860Z,41
2019-02-18T14:03:04.567Z,41
2019-02-18T14:04:06.760Z,41
2019-02-18T14:05:08.997Z,41
2019-02-18T14:06:11.190Z,42
2019-02-18T14:07:13.369Z,41
2019-02-18T14:08:15.548Z,41
2019-02-18T14:09:18.321Z,42
2019-02-18T14:10:21.118Z,41
2019-02-18T14:11:23.334Z,41
2019-02-18T14:12:26.073Z,41
2019-02-18T14:13:29.181Z,42
2019-02-18T14:14:31.912Z,42
2019-02-18T14:15:34.258Z,41
2019-02-18T14:16:36.758Z,42
2019-02-18T14:17:38.951Z,41
2019-02-18T14:18:41.344Z,43
2019-02-18T14:19:43.939Z,41
2019-02-18T14:20:46.114Z,40
2019-02-18T14:21:48.740Z,40
2019-02-18T14:22:50.928Z,40
2019-02-18T14:23:54.457Z,40
2019-02-18T14:24:57.402Z,41
2019-02-18T14:25:59.874Z,40
2019-02-18T14:27:02.045Z,40
2019-02-18T14:28:04.261Z,41
2019-02-18T14:29:06.757Z,41
2019-02-18T14:30:09.019Z,41
2019-02-18T14:31:11.235Z,41
2019-02-18T14:32:13.722Z,41
2019-02-18T14:33:15.931Z,41
2019-02-18T14:34:18.542Z,41
2019-02-18T14:35:21.948Z,40
2019-02-18T14:36:25.260Z,41
2019-02-18T14:37:27.447Z,42
2019-02-18T14:38:29.713Z,42
2019-02-18T14:39:31.890Z,42
2019-02-18T14:40:34.295Z,42
2019-02-18T14:41:37.067Z,41
2019-02-18T14:42:39.550Z,41
2019-02-18T14:43:42.143Z,41
2019-02-18T14:44:44.725Z,41